createdAt,value
2018-10-19T00:00:29.216Z,100.00
2018-10-19T00:02:58.668Z,100.00
2018-10-19T00:05:27.984Z,100.00
2018-10-19T00:07:57.320Z,100.00
2018-10-19T00:10:26.749Z,100.00
2018-10-19T00:12:56.243Z,100.00
2018-10-19T00:15:25.319Z,100.00
2018-10-19T00:17:54.615Z,100.00
2018-10-19T00:20:23.764Z,100.00
2018-10-19T00:22:52.858Z,100.00
2018-10-19T00:25:21.901Z,100.00
2018-10-19T00:27:50.928Z,100.00
2018-10-19T00:30:20.068Z,100.00
2018-10-19T00:32:49.108Z,100.00
2018-10-19T00:35:18.266Z,100.00
2018-10-19T00:37:47.341Z,100.00
2018-10-19T00:40:16.483Z,100.00
2018-10-19T00:42:45.660Z,100.00
2018-10-19T00:45:14.777Z,100.00
2018-10-19T00:47:43.832Z,100.00
2018-10-19T00:50:12.947Z,100.00
2018-10-19T00:52:41.918Z,100.00
2018-10-19T00:55:11.065Z,100.00
2018-10-19T00:57:40.218Z,100.00
2018-10-19T01:00:09.465Z,100.00
2018-10-19T01:02:38.686Z,100.00
2018-10-19T01:05:08.275Z,100.00
2018-10-19T01:07:37.336Z,100.00
2018-10-19T01:10:06.465Z,100.00
2018-10-19T01:12:35.581Z,100.00
2018-10-19T01:15:04.638Z,100.00
2018-10-19T01:17:33.698Z,100.00
2018-10-19T01:20:02.737Z,100.00
2018-10-19T01:22:31.808Z,100.00
2018-10-19T01:25:00.954Z,100.00
2018-10-19T01:27:30.042Z,100.00
2018-10-19T01:29:59.182Z,100.00
2018-10-19T01:32:28.252Z,100.00
2018-10-19T01:34:57.366Z,100.00
2018-10-19T01:37:26.499Z,100.00
2018-10-19T01:39:55.589Z,100.00
2018-10-19T01:42:24.735Z,100.00
2018-10-19T01:44:53.763Z,100.00
2018-10-19T01:47:22.792Z,100.00
2018-10-19T01:49:51.855Z,100.00
2018-10-19T01:52:20.970Z,100.00
2018-10-19T01:54:50.135Z,100.00
2018-10-19T01:57:19.154Z,100.00
2018-10-19T01:59:48.342Z,100.00
2018-10-19T02:02:17.364Z,100.00
2018-10-19T02:04:46.960Z,100.00
2018-10-19T02:07:16.466Z,100.00
2018-10-19T02:09:45.560Z,100.00
2018-10-19T02:12:14.619Z,100.00
2018-10-19T02:14:43.688Z,100.00
2018-10-19T02:17:13.047Z,100.00
2018-10-19T02:19:42.329Z,100.00
2018-10-19T02:22:11.478Z,100.00
2018-10-19T02:24:40.676Z,100.00
2018-10-19T02:27:09.849Z,100.00
2018-10-19T02:29:39.276Z,100.00
2018-10-19T02:32:08.344Z,100.00
2018-10-19T02:34:37.970Z,100.00
2018-10-19T02:37:07.851Z,100.00
2018-10-19T02:39:37.000Z,100.00
2018-10-19T02:42:06.293Z,100.00
2018-10-19T02:44:35.450Z,100.00
2018-10-19T02:47:04.652Z,100.00
2018-10-19T02:49:33.677Z,100.00
2018-10-19T02:52:03.321Z,100.00
2018-10-19T02:54:32.404Z,100.00
2018-10-19T02:57:01.584Z,100.00
2018-10-19T02:59:30.669Z,100.00
2018-10-19T03:01:59.761Z,100.00
2018-10-19T03:04:29.165Z,100.00
2018-10-19T03:06:58.289Z,100.00
2018-10-19T03:09:27.378Z,100.00
2018-10-19T03:11:56.473Z,100.00
2018-10-19T03:14:25.504Z,100.00
2018-10-19T03:16:54.638Z,100.00
2018-10-19T03:19:23.812Z,100.00
2018-10-19T03:21:52.961Z,100.00
2018-10-19T03:24:22.006Z,100.00
2018-10-19T03:26:51.036Z,100.00
2018-10-19T03:29:20.225Z,100.00
2018-10-19T03:31:49.218Z,100.00
2018-10-19T03:34:18.218Z,100.00
2018-10-19T03:36:47.335Z,100.00
2018-10-19T03:39:16.485Z,100.00
2018-10-19T03:41:45.923Z,100.00
2018-10-19T03:44:15.070Z,100.00
2018-10-19T03:46:44.168Z,100.00
2018-10-19T03:49:13.306Z,100.00
2018-10-19T03:51:42.500Z,100.00
2018-10-19T03:54:11.911Z,100.00
2018-10-19T03:56:41.358Z,100.00
2018-10-19T03:59:10.463Z,100.00
2018-10-19T04:01:39.922Z,100.00
2018-10-19T04:04:09.494Z,100.00
2018-10-19T04:06:38.600Z,100.00
2018-10-19T04:09:10.478Z,100.00
2018-10-19T04:11:39.822Z,100.00
2018-10-19T04:14:09.832Z,100.00
2018-10-19T04:16:39.013Z,100.00
2018-10-19T04:19:08.504Z,100.00
2018-10-19T04:21:37.968Z,100.00
2018-10-19T04:24:07.469Z,100.00
2018-10-19T04:26:36.549Z,100.00
2018-10-19T04:29:06.289Z,100.00
2018-10-19T04:31:35.383Z,100.00
2018-10-19T04:34:04.469Z,100.00
2018-10-19T04:36:33.557Z,100.00
2018-10-19T04:39:02.723Z,100.00
2018-10-19T04:41:32.323Z,100.00
2018-10-19T04:44:01.333Z,100.00
2018-10-19T04:46:30.433Z,100.00
2018-10-19T04:48:59.453Z,100.00
2018-10-19T04:51:28.963Z,100.00
2018-10-19T04:53:57.996Z,100.00
2018-10-19T04:56:27.115Z,100.00
2018-10-19T04:58:56.658Z,100.00
2018-10-19T05:01:25.722Z,100.00
2018-10-19T05:03:54.821Z,100.00
2018-10-19T05:06:23.842Z,100.00
2018-10-19T05:08:52.896Z,100.00
2018-10-19T05:11:22.021Z,100.00
2018-10-19T05:13:51.324Z,100.00
2018-10-19T05:16:20.801Z,100.00
2018-10-19T05:18:50.043Z,100.00
2018-10-19T05:21:19.443Z,100.00
2018-10-19T05:23:48.874Z,100.00
2018-10-19T05:26:18.592Z,100.00
2018-10-19T05:28:47.862Z,100.00
2018-10-19T05:31:16.964Z,100.00
2018-10-19T05:33:45.956Z,100.00
2018-10-19T05:36:15.032Z,100.00
2018-10-19T05:38:44.171Z,100.00
2018-10-19T05:41:13.354Z,100.00
2018-10-19T05:43:42.430Z,100.00
2018-10-19T05:46:11.632Z,100.00
2018-10-19T05:48:40.991Z,100.00
2018-10-19T05:51:11.184Z,100.00
2018-10-19T05:53:40.459Z,100.00
2018-10-19T05:56:09.918Z,100.00
2018-10-19T05:58:39.080Z,100.00
2018-10-19T06:01:08.484Z,100.00
2018-10-19T06:03:37.570Z,100.00
2018-10-19T06:06:06.709Z,100.00
2018-10-19T06:08:36.064Z,100.00
2018-10-19T06:11:05.879Z,100.00
2018-10-19T06:13:34.989Z,100.00
2018-10-19T06:16:04.046Z,100.00
2018-10-19T06:18:33.183Z,100.00
2018-10-19T06:21:02.607Z,100.00
2018-10-19T06:23:32.210Z,100.00
2018-10-19T06:26:01.506Z,100.00
2018-10-19T06:28:30.976Z,100.00
2018-10-19T06:31:00.102Z,100.00
2018-10-19T06:33:29.183Z,100.00
2018-10-19T06:35:58.331Z,100.00
2018-10-19T06:38:27.388Z,100.00
2018-10-19T06:40:56.506Z,100.00
2018-10-19T06:43:25.958Z,100.00
2018-10-19T06:45:55.033Z,100.00
2018-10-19T06:48:24.132Z,100.00
2018-10-19T06:50:53.518Z,100.00
2018-10-19T06:53:23.014Z,100.00
2018-10-19T06:55:52.286Z,100.00
2018-10-19T06:58:21.412Z,100.00
2018-10-19T07:00:50.513Z,100.00
2018-10-19T07:03:19.608Z,100.00
2018-10-19T07:05:49.299Z,100.00
2018-10-19T07:08:18.387Z,100.00
2018-10-19T07:10:47.524Z,100.00
2018-10-19T07:13:16.657Z,100.00
2018-10-19T07:15:45.974Z,100.00
2018-10-19T07:18:14.981Z,100.00
2018-10-19T07:20:44.380Z,100.00
2018-10-19T07:23:13.829Z,100.00
2018-10-19T07:25:43.043Z,100.00
2018-10-19T07:28:12.131Z,100.00
2018-10-19T07:30:41.299Z,100.00
2018-10-19T07:33:10.397Z,100.00
2018-10-19T07:35:39.630Z,100.00
2018-10-19T07:38:09.018Z,100.00
2018-10-19T07:40:38.665Z,100.00
2018-10-19T07:43:08.162Z,100.00
2018-10-19T07:45:37.244Z,100.00
2018-10-19T07:48:06.502Z,100.00
2018-10-19T07:50:35.425Z,100.00
2018-10-19T07:53:05.266Z,100.00
2018-10-19T07:55:34.338Z,100.00
2018-10-19T07:58:03.468Z,100.00
2018-10-19T08:00:32.544Z,100.00
2018-10-19T08:03:01.809Z,100.00
2018-10-19T08:05:30.970Z,100.00
2018-10-19T08:08:00.079Z,100.00
2018-10-19T08:10:29.220Z,100.00
2018-10-19T08:12:58.389Z,100.00
2018-10-19T08:15:27.542Z,100.00
2018-10-19T08:17:56.877Z,100.00
2018-10-19T08:20:26.321Z,100.00
2018-10-19T08:22:55.490Z,100.00
2018-10-19T08:25:24.996Z,100.00
2018-10-19T08:27:54.099Z,100.00
2018-10-19T08:30:23.206Z,100.00
2018-10-19T08:32:52.335Z,100.00
2018-10-19T08:35:21.846Z,100.00
2018-10-19T08:37:51.070Z,100.00
2018-10-19T08:40:20.489Z,100.00
2018-10-19T08:42:49.578Z,100.00
2018-10-19T08:45:18.859Z,100.00
2018-10-19T08:47:47.897Z,100.00
2018-10-19T08:50:17.470Z,100.00
2018-10-19T08:52:47.024Z,100.00
2018-10-19T08:55:16.480Z,100.00
2018-10-19T08:57:45.848Z,100.00
2018-10-19T09:00:15.265Z,100.00
2018-10-19T09:02:44.759Z,100.00
2018-10-19T09:05:14.460Z,100.00
2018-10-19T09:07:43.751Z,100.00
2018-10-19T09:10:12.856Z,100.00
2018-10-19T09:12:42.076Z,100.00
2018-10-19T09:15:11.224Z,100.00
2018-10-19T09:17:40.285Z,100.00
2018-10-19T09:20:09.400Z,100.00
2018-10-19T09:22:38.564Z,100.00
2018-10-19T09:25:07.631Z,100.00
2018-10-19T09:27:36.765Z,100.00
2018-10-19T09:30:06.843Z,100.00
2018-10-19T09:32:35.941Z,100.00
2018-10-19T09:35:05.323Z,100.00
2018-10-19T09:37:34.574Z,100.00
2018-10-19T09:40:03.683Z,100.00
2018-10-19T09:42:32.779Z,100.00
2018-10-19T09:45:01.999Z,100.00
2018-10-19T09:47:31.147Z,100.00
2018-10-19T09:50:00.674Z,99.09
2018-10-19T09:52:30.145Z,93.74
2018-10-19T09:54:59.281Z,91.97
2018-10-19T09:57:28.441Z,92.45
2018-10-19T09:59:57.512Z,90.01
2018-10-19T10:02:26.585Z,88.62
2018-10-19T10:04:55.807Z,93.34
2018-10-19T10:07:24.883Z,95.25
2018-10-19T10:09:53.924Z,92.42
2018-10-19T10:12:23.037Z,92.45
2018-10-19T10:14:52.242Z,89.54
2018-10-19T10:17:21.272Z,91.47
2018-10-19T10:19:50.320Z,94.31
2018-10-19T10:22:19.449Z,89.80
2018-10-19T10:24:48.530Z,91.43
2018-10-19T10:27:17.627Z,84.37
2018-10-19T10:29:46.771Z,83.24
2018-10-19T10:32:16.014Z,82.12
2018-10-19T10:34:45.069Z,86.31
2018-10-19T10:37:14.218Z,87.66
2018-10-19T10:39:43.432Z,85.96
2018-10-19T10:42:12.575Z,83.23
2018-10-19T10:44:42.115Z,88.61
2018-10-19T10:47:11.192Z,84.66
2018-10-19T10:49:40.267Z,89.09
2018-10-19T10:52:09.574Z,87.17
2018-10-19T10:54:38.594Z,85.35
2018-10-19T10:57:07.941Z,81.84
2018-10-19T10:59:37.053Z,77.36
2018-10-19T11:02:06.498Z,73.89
2018-10-19T11:04:37.078Z,72.70
2018-10-19T11:07:06.325Z,76.15
2018-10-19T11:09:36.440Z,75.98
2018-10-19T11:12:06.090Z,75.92
2018-10-19T11:14:35.200Z,76.62
2018-10-19T11:17:04.244Z,81.64
2018-10-19T11:19:33.628Z,87.32
2018-10-19T11:22:02.764Z,81.13
2018-10-19T11:24:32.349Z,84.01
2018-10-19T11:27:01.753Z,90.06
2018-10-19T11:29:31.018Z,87.80
2018-10-19T11:32:00.064Z,87.96
2018-10-19T11:34:29.153Z,87.69
2018-10-19T11:36:58.315Z,83.00
2018-10-19T11:39:27.701Z,81.70
2018-10-19T11:41:56.817Z,88.88
2018-10-19T11:44:25.987Z,87.02
2018-10-19T11:46:57.448Z,87.03
2018-10-19T11:49:26.549Z,85.88
2018-10-19T11:51:55.646Z,86.82
2018-10-19T11:54:24.774Z,85.13
2018-10-19T11:56:53.823Z,83.58
2018-10-19T11:59:22.964Z,82.70
2018-10-19T12:01:52.187Z,81.91
2018-10-19T12:04:21.610Z,78.88
2018-10-19T12:06:50.716Z,85.55
2018-10-19T12:09:19.800Z,87.17
2018-10-19T12:11:48.912Z,86.18
2018-10-19T12:14:18.052Z,83.28
2018-10-19T12:16:47.302Z,78.57
2018-10-19T12:19:16.484Z,80.43
2018-10-19T12:21:45.479Z,83.43
2018-10-19T12:24:14.874Z,78.90
2018-10-19T12:26:44.005Z,79.36
2018-10-19T12:29:13.143Z,80.22
2018-10-19T12:31:42.209Z,78.71
2018-10-19T12:34:11.320Z,81.74
2018-10-19T12:36:40.380Z,78.47
2018-10-19T12:39:10.713Z,80.13
2018-10-19T12:41:39.812Z,85.06
2018-10-19T12:44:08.888Z,81.83
2018-10-19T12:46:49.881Z,78.09
2018-10-19T12:49:23.234Z,76.51
2018-10-19T12:51:52.513Z,78.01
2018-10-19T12:54:21.546Z,77.99
2018-10-19T12:56:51.061Z,79.14
2018-10-19T12:59:20.203Z,80.06
2018-10-19T13:01:49.324Z,79.07
2018-10-19T13:04:18.685Z,76.59
2018-10-19T13:06:47.841Z,75.38
2018-10-19T13:09:17.178Z,77.42
2018-10-19T13:11:46.248Z,81.44
2018-10-19T13:14:15.324Z,82.29
2018-10-19T13:16:44.396Z,81.16
2018-10-19T13:19:13.581Z,80.82
2018-10-19T13:21:42.894Z,81.12
2018-10-19T13:24:12.308Z,78.34
2018-10-19T13:26:41.637Z,82.39
2018-10-19T13:29:11.101Z,78.74
2018-10-19T13:31:40.159Z,80.47
2018-10-19T13:34:09.266Z,79.32
2018-10-19T13:36:38.364Z,78.24
2018-10-19T13:39:10.394Z,77.18
2018-10-19T13:41:39.702Z,78.88
2018-10-19T13:44:08.850Z,78.45
2018-10-19T13:46:38.113Z,80.20
2018-10-19T13:49:07.206Z,82.83
2018-10-19T13:51:36.836Z,82.27
2018-10-19T13:54:06.108Z,84.24
2018-10-19T13:56:35.181Z,83.57
2018-10-19T13:59:04.332Z,84.52
2018-10-19T14:01:33.451Z,88.15
2018-10-19T14:04:02.844Z,89.73
2018-10-19T14:06:31.996Z,89.97
2018-10-19T14:09:01.106Z,88.17
2018-10-19T14:11:30.235Z,89.25
2018-10-19T14:13:59.312Z,89.35
2018-10-19T14:16:28.487Z,88.90
2018-10-19T14:18:57.591Z,89.55
2018-10-19T14:21:26.968Z,90.82
2018-10-19T14:23:56.052Z,92.50
2018-10-19T14:26:25.140Z,94.37
2018-10-19T14:28:54.224Z,95.57
2018-10-19T14:31:23.272Z,94.78
2018-10-19T14:33:52.428Z,94.90
2018-10-19T14:36:21.562Z,95.65
2018-10-19T14:38:50.887Z,95.08
2018-10-19T14:41:20.908Z,96.69
2018-10-19T14:43:50.012Z,96.47
2018-10-19T14:46:19.096Z,94.36
2018-10-19T14:48:48.146Z,94.29
2018-10-19T14:51:17.333Z,96.65
2018-10-19T14:53:46.411Z,97.67
2018-10-19T14:56:15.506Z,98.27
2018-10-19T14:58:44.857Z,98.59
2018-10-19T15:01:14.209Z,100.00
2018-10-19T15:03:43.272Z,100.00
2018-10-19T15:06:12.425Z,100.00
2018-10-19T15:08:41.492Z,100.00
2018-10-19T15:11:11.068Z,100.00
2018-10-19T15:13:40.224Z,100.00
2018-10-19T15:16:09.625Z,100.00
2018-10-19T15:18:38.718Z,100.00
2018-10-19T15:21:07.930Z,100.00
2018-10-19T15:23:37.306Z,100.00
2018-10-19T15:26:06.461Z,100.00
2018-10-19T15:28:35.629Z,100.00
2018-10-19T15:31:04.769Z,100.00
2018-10-19T15:33:34.496Z,100.00
2018-10-19T15:36:04.056Z,100.00
2018-10-19T15:38:33.163Z,100.00
2018-10-19T15:41:02.613Z,100.00
2018-10-19T15:43:31.749Z,100.00
2018-10-19T15:46:01.229Z,100.00
2018-10-19T15:48:30.609Z,100.00
2018-10-19T15:50:59.982Z,100.00
2018-10-19T15:53:29.180Z,100.00
2018-10-19T15:55:58.524Z,100.00
2018-10-19T15:58:27.891Z,100.00
2018-10-19T16:00:57.285Z,100.00
2018-10-19T16:03:26.709Z,100.00
2018-10-19T16:05:56.130Z,100.00
2018-10-19T16:08:25.571Z,100.00
2018-10-19T16:10:55.114Z,100.00
2018-10-19T16:13:24.665Z,100.00
2018-10-19T16:15:53.951Z,100.00
2018-10-19T16:18:23.350Z,100.00
2018-10-19T16:20:52.950Z,100.00
2018-10-19T16:23:22.521Z,100.00
2018-10-19T16:25:51.592Z,100.00
2018-10-19T16:28:20.808Z,100.00
2018-10-19T16:30:49.918Z,100.00
2018-10-19T16:33:19.361Z,100.00
2018-10-19T16:35:48.671Z,100.00
2018-10-19T16:38:18.212Z,100.00
2018-10-19T16:40:47.214Z,100.00
2018-10-19T16:43:16.232Z,100.00
2018-10-19T16:45:45.931Z,100.00
2018-10-19T16:48:15.831Z,100.00
2018-10-19T16:50:45.198Z,100.00
2018-10-19T16:53:14.572Z,100.00
2018-10-19T16:55:43.632Z,100.00
2018-10-19T16:58:13.130Z,100.00
2018-10-19T17:00:42.579Z,100.00
2018-10-19T17:03:12.026Z,100.00
2018-10-19T17:05:41.389Z,100.00
2018-10-19T17:08:10.488Z,100.00
2018-10-19T17:10:39.507Z,100.00
2018-10-19T17:13:09.090Z,100.00
2018-10-19T17:15:38.134Z,100.00
2018-10-19T17:18:07.313Z,100.00
2018-10-19T17:20:36.694Z,100.00
2018-10-19T17:23:06.118Z,100.00
2018-10-19T17:25:35.228Z,100.00
2018-10-19T17:28:04.710Z,100.00
2018-10-19T17:30:34.335Z,100.00
2018-10-19T17:33:03.608Z,100.00
2018-10-19T17:35:33.314Z,100.00
2018-10-19T17:38:02.613Z,100.00
2018-10-19T17:40:31.836Z,100.00
2018-10-19T17:43:01.231Z,100.00
2018-10-19T17:45:30.209Z,100.00
2018-10-19T17:47:59.411Z,100.00
2018-10-19T17:50:28.521Z,100.00
2018-10-19T17:52:57.870Z,100.00
2018-10-19T17:55:26.924Z,100.00
2018-10-19T17:57:56.001Z,100.00
2018-10-19T18:00:25.433Z,100.00
2018-10-19T18:02:54.996Z,100.00
2018-10-19T18:05:24.576Z,100.00
2018-10-19T18:07:53.832Z,100.00
2018-10-19T18:10:23.129Z,100.00
2018-10-19T18:12:52.754Z,100.00
2018-10-19T18:15:22.935Z,100.00
2018-10-19T18:17:52.417Z,100.00
2018-10-19T18:20:21.527Z,100.00
2018-10-19T18:22:50.748Z,100.00
2018-10-19T18:25:19.642Z,100.00
2018-10-19T18:27:48.960Z,100.00
2018-10-19T18:30:18.307Z,100.00
2018-10-19T18:32:47.599Z,100.00
2018-10-19T18:35:17.044Z,100.00
2018-10-19T18:37:46.239Z,100.00
2018-10-19T18:40:15.638Z,100.00
2018-10-19T18:42:44.980Z,100.00
2018-10-19T18:45:14.456Z,100.00
2018-10-19T18:47:43.525Z,100.00
2018-10-19T18:50:12.741Z,100.00
2018-10-19T18:52:42.013Z,100.00
2018-10-19T18:55:11.199Z,100.00
2018-10-19T18:57:40.470Z,100.00
2018-10-19T19:00:11.096Z,100.00
2018-10-19T19:02:40.725Z,100.00
2018-10-19T19:05:10.328Z,100.00
2018-10-19T19:07:39.693Z,100.00
2018-10-19T19:10:12.785Z,100.00
2018-10-19T19:12:42.147Z,100.00
2018-10-19T19:15:11.901Z,100.00
2018-10-19T19:17:41.537Z,100.00
2018-10-19T19:20:15.697Z,100.00
2018-10-19T19:22:44.902Z,100.00
2018-10-19T19:25:19.314Z,100.00
2018-10-19T19:27:48.894Z,100.00
2018-10-19T19:30:18.233Z,100.00
2018-10-19T19:32:52.788Z,100.00
2018-10-19T19:35:22.136Z,100.00
2018-10-19T19:37:51.595Z,100.00
2018-10-19T19:40:21.114Z,100.00
2018-10-19T19:42:52.470Z,100.00
2018-10-19T19:45:21.896Z,100.00
2018-10-19T19:47:56.401Z,100.00
2018-10-19T19:50:25.902Z,100.00
2018-10-19T19:52:55.431Z,100.00
2018-10-19T19:55:24.717Z,100.00
2018-10-19T19:57:54.262Z,100.00
2018-10-19T20:00:23.715Z,100.00
2018-10-19T20:02:53.017Z,100.00
2018-10-19T20:05:22.551Z,100.00
2018-10-19T20:07:52.102Z,100.00
2018-10-19T20:10:21.445Z,100.00
2018-10-19T20:12:50.713Z,100.00
2018-10-19T20:15:20.252Z,100.00
2018-10-19T20:17:49.580Z,100.00
2018-10-19T20:20:19.043Z,100.00
2018-10-19T20:22:48.514Z,100.00
2018-10-19T20:25:18.182Z,100.00
2018-10-19T20:27:47.661Z,100.00
2018-10-19T20:30:17.105Z,100.00
2018-10-19T20:32:46.738Z,100.00
2018-10-19T20:35:16.152Z,100.00
2018-10-19T20:37:45.550Z,100.00
2018-10-19T20:40:15.023Z,100.00
2018-10-19T20:42:44.500Z,100.00
2018-10-19T20:45:13.918Z,100.00
2018-10-19T20:47:43.371Z,100.00
2018-10-19T20:50:12.776Z,100.00
2018-10-19T20:52:42.120Z,100.00
2018-10-19T20:55:11.460Z,100.00
2018-10-19T20:57:40.928Z,100.00
2018-10-19T21:00:10.481Z,100.00
2018-10-19T21:02:39.865Z,100.00
2018-10-19T21:05:11.212Z,100.00
2018-10-19T21:07:40.678Z,100.00
2018-10-19T21:10:11.909Z,100.00
2018-10-19T21:12:41.363Z,100.00
2018-10-19T21:15:12.993Z,100.00
2018-10-19T21:17:42.634Z,100.00
2018-10-19T21:20:13.668Z,100.00
2018-10-19T21:22:43.063Z,100.00
2018-10-19T21:25:12.997Z,100.00
2018-10-19T21:27:42.408Z,100.00
2018-10-19T21:30:12.760Z,100.00
2018-10-19T21:32:42.576Z,100.00
2018-10-19T21:35:12.683Z,100.00
2018-10-19T21:37:42.134Z,100.00
2018-10-19T21:40:12.076Z,100.00
2018-10-19T21:42:41.503Z,100.00
2018-10-19T21:45:11.125Z,100.00
2018-10-19T21:47:40.998Z,100.00
2018-10-19T21:50:10.832Z,100.00
2018-10-19T21:52:40.450Z,100.00
2018-10-19T21:55:11.162Z,100.00
2018-10-19T21:57:40.949Z,100.00
2018-10-19T22:00:10.956Z,100.00
2018-10-19T22:02:40.491Z,100.00
2018-10-19T22:05:10.297Z,100.00
2018-10-19T22:07:39.713Z,100.00
2018-10-19T22:10:09.287Z,100.00
2018-10-19T22:12:38.666Z,100.00
2018-10-19T22:15:08.749Z,100.00
2018-10-19T22:17:38.217Z,100.00
2018-10-19T22:20:08.032Z,100.00
2018-10-19T22:22:37.805Z,100.00
2018-10-19T22:25:07.583Z,100.00
2018-10-19T22:27:37.013Z,100.00
2018-10-19T22:30:07.417Z,100.00
2018-10-19T22:32:36.839Z,100.00
2018-10-19T22:35:06.329Z,100.00
2018-10-19T22:37:35.963Z,100.00
2018-10-19T22:40:05.848Z,100.00
2018-10-19T22:42:35.319Z,100.00
2018-10-19T22:45:04.938Z,100.00
2018-10-19T22:47:34.440Z,100.00
2018-10-19T22:50:03.858Z,100.00
2018-10-19T22:52:33.165Z,100.00
2018-10-19T22:55:02.645Z,100.00
2018-10-19T22:57:32.035Z,100.00
2018-10-19T23:00:01.563Z,100.00
2018-10-19T23:02:31.383Z,100.00
2018-10-19T23:05:00.832Z,100.00
2018-10-19T23:07:30.311Z,100.00
2018-10-19T23:09:59.980Z,100.00
2018-10-19T23:12:29.404Z,100.00
2018-10-19T23:14:58.803Z,100.00
2018-10-19T23:17:28.489Z,100.00
2018-10-19T23:19:57.916Z,100.00
2018-10-19T23:22:27.243Z,100.00
2018-10-19T23:24:56.704Z,100.00
2018-10-19T23:27:26.077Z,100.00
2018-10-19T23:29:55.591Z,100.00
2018-10-19T23:32:25.072Z,100.00
2018-10-19T23:34:54.713Z,100.00
2018-10-19T23:37:24.130Z,100.00
2018-10-19T23:39:53.588Z,100.00
2018-10-19T23:42:23.293Z,100.00
2018-10-19T23:44:52.725Z,100.00
2018-10-19T23:47:22.493Z,100.00
2018-10-19T23:49:52.457Z,100.00
2018-10-19T23:52:22.050Z,100.00
2018-10-19T23:54:51.523Z,100.00
2018-10-19T23:57:20.996Z,100.00
2018-10-19T23:59:50.880Z,100.00
